sensor_id;sensor_type;location;lat;lon;timestamp;P1;durP1;ratioP1;P2;durP2;ratioP2
68315;SDS011;55508;54.368;18.406;2023-02-24T00:01:19;59.28;;;30.17;;
68315;SDS011;55508;54.368;18.406;2023-02-24T00:03:51;59.30;;;32.90;;
68315;SDS011;55508;54.368;18.406;2023-02-24T00:06:18;66.93;;;33.25;;
68315;SDS011;55508;54.368;18.406;2023-02-24T00:08:45;62.40;;;32.20;;
68315;SDS011;55508;54.368;18.406;2023-02-24T00:11:13;65.63;;;33.53;;
68315;SDS011;55508;54.368;18.406;2023-02-24T00:13:43;60.92;;;31.70;;
68315;SDS011;55508;54.368;18.406;2023-02-24T00:16:14;62.35;;;30.63;;
68315;SDS011;55508;54.368;18.406;2023-02-24T00:18:45;58.50;;;32.03;;
68315;SDS011;55508;54.368;18.406;2023-02-24T00:21:13;63.75;;;33.42;;
68315;SDS011;55508;54.368;18.406;2023-02-24T00:23:43;68.53;;;34.10;;
68315;SDS011;55508;54.368;18.406;2023-02-24T00:26:12;58.95;;;32.22;;
68315;SDS011;55508;54.368;18.406;2023-02-24T00:28:40;57.63;;;31.73;;
68315;SDS011;55508;54.368;18.406;2023-02-24T00:31:09;60.97;;;31.85;;
68315;SDS011;55508;54.368;18.406;2023-02-24T00:33:40;62.90;;;33.63;;
68315;SDS011;55508;54.368;18.406;2023-02-24T00:36:11;58.40;;;31.08;;
68315;SDS011;55508;54.368;18.406;2023-02-24T00:38:42;64.57;;;33.00;;
68315;SDS011;55508;54.368;18.406;2023-02-24T00:41:15;60.40;;;31.30;;
68315;SDS011;55508;54.368;18.406;2023-02-24T00:43:45;56.90;;;29.80;;
68315;SDS011;55508;54.368;18.406;2023-02-24T00:46:13;61.65;;;29.80;;
68315;SDS011;55508;54.368;18.406;2023-02-24T00:48:43;59.47;;;32.10;;
68315;SDS011;55508;54.368;18.406;2023-02-24T00:51:15;59.45;;;31.75;;
68315;SDS011;55508;54.368;18.406;2023-02-24T00:53:43;58.88;;;31.38;;
68315;SDS011;55508;54.368;18.406;2023-02-24T00:56:10;56.88;;;30.63;;
68315;SDS011;55508;54.368;18.406;2023-02-24T00:58:39;49.13;;;27.75;;
68315;SDS011;55508;54.368;18.406;2023-02-24T01:01:13;57.88;;;29.88;;
68315;SDS011;55508;54.368;18.406;2023-02-24T01:03:43;52.03;;;29.55;;
68315;SDS011;55508;54.368;18.406;2023-02-24T01:06:11;54.30;;;28.95;;
68315;SDS011;55508;54.368;18.406;2023-02-24T01:08:39;58.95;;;30.10;;
68315;SDS011;55508;54.368;18.406;2023-02-24T01:11:13;56.20;;;29.15;;
68315;SDS011;55508;54.368;18.406;2023-02-24T01:14:09;67.15;;;30.10;;
68315;SDS011;55508;54.368;18.406;2023-02-24T01:16:39;64.35;;;31.40;;
68315;SDS011;55508;54.368;18.406;2023-02-24T01:19:07;67.65;;;30.65;;
68315;SDS011;55508;54.368;18.406;2023-02-24T01:21:34;68.00;;;31.95;;
68315;SDS011;55508;54.368;18.406;2023-02-24T01:24:01;71.85;;;30.75;;
68315;SDS011;55508;54.368;18.406;2023-02-24T01:26:28;63.58;;;30.23;;
68315;SDS011;55508;54.368;18.406;2023-02-24T01:28:56;75.05;;;32.90;;
68315;SDS011;55508;54.368;18.406;2023-02-24T01:31:23;67.53;;;31.30;;
68315;SDS011;55508;54.368;18.406;2023-02-24T01:33:50;84.65;;;33.80;;
68315;SDS011;55508;54.368;18.406;2023-02-24T01:36:18;74.13;;;30.67;;
68315;SDS011;55508;54.368;18.406;2023-02-24T01:38:47;65.65;;;29.42;;
68315;SDS011;55508;54.368;18.406;2023-02-24T01:41:18;69.03;;;30.45;;
68315;SDS011;55508;54.368;18.406;2023-02-24T01:44:06;72.47;;;30.40;;
68315;SDS011;55508;54.368;18.406;2023-02-24T01:46:57;69.43;;;31.13;;
68315;SDS011;55508;54.368;18.406;2023-02-24T01:49:33;64.22;;;28.65;;
68315;SDS011;55508;54.368;18.406;2023-02-24T01:52:16;76.10;;;31.63;;
68315;SDS011;55508;54.368;18.406;2023-02-24T01:54:51;71.07;;;31.08;;
68315;SDS011;55508;54.368;18.406;2023-02-24T01:57:21;79.78;;;32.15;;
68315;SDS011;55508;54.368;18.406;2023-02-24T01:59:50;74.95;;;31.77;;
68315;SDS011;55508;54.368;18.406;2023-02-24T02:02:18;69.18;;;30.17;;
68315;SDS011;55508;54.368;18.406;2023-02-24T02:04:54;67.00;;;30.52;;
68315;SDS011;55508;54.368;18.406;2023-02-24T02:07:24;70.00;;;30.83;;
68315;SDS011;55508;54.368;18.406;2023-02-24T02:09:53;66.15;;;29.85;;
68315;SDS011;55508;54.368;18.406;2023-02-24T02:12:20;60.10;;;26.75;;
68315;SDS011;55508;54.368;18.406;2023-02-24T02:14:50;58.50;;;26.33;;
68315;SDS011;55508;54.368;18.406;2023-02-24T02:20:26;51.00;;;25.42;;
68315;SDS011;55508;54.368;18.406;2023-02-24T02:23:19;54.97;;;27.75;;
68315;SDS011;55508;54.368;18.406;2023-02-24T02:26:04;49.85;;;24.65;;
68315;SDS011;55508;54.368;18.406;2023-02-24T02:38:09;43.20;;;21.95;;
68315;SDS011;55508;54.368;18.406;2023-02-24T02:43:26;35.05;;;18.90;;
68315;SDS011;55508;54.368;18.406;2023-02-24T02:46:22;37.88;;;21.00;;
68315;SDS011;55508;54.368;18.406;2023-02-24T02:49:10;28.55;;;16.85;;
68315;SDS011;55508;54.368;18.406;2023-02-24T02:51:46;35.47;;;19.17;;
68315;SDS011;55508;54.368;18.406;2023-02-24T02:54:28;33.00;;;18.60;;
68315;SDS011;55508;54.368;18.406;2023-02-24T02:57:08;33.95;;;18.45;;
68315;SDS011;55508;54.368;18.406;2023-02-24T02:59:40;29.95;;;15.95;;
68315;SDS011;55508;54.368;18.406;2023-02-24T03:02:10;30.17;;;15.50;;
68315;SDS011;55508;54.368;18.406;2023-02-24T03:04:42;29.98;;;16.05;;
68315;SDS011;55508;54.368;18.406;2023-02-24T03:07:17;29.98;;;15.38;;
68315;SDS011;55508;54.368;18.406;2023-02-24T03:09:48;31.38;;;15.10;;
68315;SDS011;55508;54.368;18.406;2023-02-24T03:12:18;26.60;;;14.80;;
68315;SDS011;55508;54.368;18.406;2023-02-24T03:14:48;21.52;;;13.30;;
68315;SDS011;55508;54.368;18.406;2023-02-24T03:17:20;23.45;;;12.85;;
68315;SDS011;55508;54.368;18.406;2023-02-24T03:20:00;16.58;;;10.23;;
68315;SDS011;55508;54.368;18.406;2023-02-24T03:22:40;17.38;;;11.18;;
68315;SDS011;55508;54.368;18.406;2023-02-24T03:25:10;14.27;;;9.75;;
68315;SDS011;55508;54.368;18.406;2023-02-24T03:27:41;16.13;;;9.93;;
68315;SDS011;55508;54.368;18.406;2023-02-24T03:30:20;12.98;;;9.32;;
68315;SDS011;55508;54.368;18.406;2023-02-24T03:32:55;13.75;;;8.68;;
68315;SDS011;55508;54.368;18.406;2023-02-24T03:35:30;10.18;;;7.35;;
68315;SDS011;55508;54.368;18.406;2023-02-24T03:38:00;8.93;;;6.72;;
68315;SDS011;55508;54.368;18.406;2023-02-24T03:40:28;7.85;;;7.05;;
68315;SDS011;55508;54.368;18.406;2023-02-24T03:43:05;7.18;;;6.25;;
68315;SDS011;55508;54.368;18.406;2023-02-24T03:45:37;6.47;;;5.88;;
68315;SDS011;55508;54.368;18.406;2023-02-24T03:48:05;6.55;;;5.95;;
68315;SDS011;55508;54.368;18.406;2023-02-24T03:50:34;7.13;;;6.30;;
68315;SDS011;55508;54.368;18.406;2023-02-24T03:53:22;7.35;;;6.22;;
68315;SDS011;55508;54.368;18.406;2023-02-24T03:56:04;6.65;;;6.07;;
68315;SDS011;55508;54.368;18.406;2023-02-24T03:59:01;6.43;;;5.72;;
68315;SDS011;55508;54.368;18.406;2023-02-24T04:01:50;5.78;;;5.28;;
68315;SDS011;55508;54.368;18.406;2023-02-24T04:04:35;5.50;;;5.10;;
68315;SDS011;55508;54.368;18.406;2023-02-24T04:13:44;5.90;;;5.40;;
68315;SDS011;55508;54.368;18.406;2023-02-24T04:16:25;6.45;;;5.78;;
68315;SDS011;55508;54.368;18.406;2023-02-24T04:18:59;5.80;;;5.40;;
68315;SDS011;55508;54.368;18.406;2023-02-24T04:21:32;5.63;;;5.13;;
68315;SDS011;55508;54.368;18.406;2023-02-24T04:24:01;4.68;;;4.28;;
68315;SDS011;55508;54.368;18.406;2023-02-24T04:26:34;4.63;;;4.22;;
68315;SDS011;55508;54.368;18.406;2023-02-24T04:29:02;4.25;;;3.95;;
68315;SDS011;55508;54.368;18.406;2023-02-24T04:31:29;4.40;;;4.00;;
68315;SDS011;55508;54.368;18.406;2023-02-24T04:33:57;3.85;;;3.55;;
68315;SDS011;55508;54.368;18.406;2023-02-24T04:36:33;3.55;;;3.25;;
68315;SDS011;55508;54.368;18.406;2023-02-24T04:39:00;3.40;;;3.15;;
68315;SDS011;55508;54.368;18.406;2023-02-24T04:41:27;4.03;;;3.63;;
68315;SDS011;55508;54.368;18.406;2023-02-24T04:43:54;3.67;;;3.47;;
68315;SDS011;55508;54.368;18.406;2023-02-24T04:46:21;4.60;;;3.42;;
68315;SDS011;55508;54.368;18.406;2023-02-24T04:48:48;4.47;;;3.75;;
68315;SDS011;55508;54.368;18.406;2023-02-24T04:51:16;4.75;;;4.32;;
68315;SDS011;55508;54.368;18.406;2023-02-24T04:53:47;3.97;;;3.60;;
68315;SDS011;55508;54.368;18.406;2023-02-24T04:56:14;2.33;;;2.10;;
68315;SDS011;55508;54.368;18.406;2023-02-24T04:58:44;3.08;;;2.53;;
68315;SDS011;55508;54.368;18.406;2023-02-24T05:01:11;2.88;;;2.65;;
68315;SDS011;55508;54.368;18.406;2023-02-24T05:03:38;2.97;;;2.78;;
68315;SDS011;55508;54.368;18.406;2023-02-24T05:06:15;3.42;;;2.97;;
68315;SDS011;55508;54.368;18.406;2023-02-24T05:08:43;3.00;;;2.75;;
68315;SDS011;55508;54.368;18.406;2023-02-24T05:11:14;4.00;;;3.25;;
68315;SDS011;55508;54.368;18.406;2023-02-24T05:13:42;4.65;;;3.35;;
68315;SDS011;55508;54.368;18.406;2023-02-24T05:16:12;4.03;;;3.30;;
68315;SDS011;55508;54.368;18.406;2023-02-24T05:18:40;3.90;;;3.50;;
68315;SDS011;55508;54.368;18.406;2023-02-24T05:21:09;4.30;;;3.15;;
68315;SDS011;55508;54.368;18.406;2023-02-24T05:23:58;3.60;;;3.30;;
68315;SDS011;55508;54.368;18.406;2023-02-24T05:26:35;3.13;;;2.85;;
68315;SDS011;55508;54.368;18.406;2023-02-24T05:29:04;3.38;;;3.08;;
68315;SDS011;55508;54.368;18.406;2023-02-24T05:31:32;3.50;;;3.20;;
68315;SDS011;55508;54.368;18.406;2023-02-24T05:34:00;3.53;;;3.05;;
68315;SDS011;55508;54.368;18.406;2023-02-24T05:36:33;5.45;;;3.83;;
68315;SDS011;55508;54.368;18.406;2023-02-24T05:39:04;4.07;;;3.72;;
68315;SDS011;55508;54.368;18.406;2023-02-24T05:41:34;3.85;;;3.53;;
68315;SDS011;55508;54.368;18.406;2023-02-24T05:44:05;4.30;;;3.90;;
68315;SDS011;55508;54.368;18.406;2023-02-24T05:46:37;5.20;;;3.63;;
68315;SDS011;55508;54.368;18.406;2023-02-24T05:49:07;4.10;;;3.70;;
68315;SDS011;55508;54.368;18.406;2023-02-24T05:51:49;7.70;;;3.45;;
68315;SDS011;55508;54.368;18.406;2023-02-24T05:54:22;7.18;;;3.63;;
68315;SDS011;55508;54.368;18.406;2023-02-24T05:56:51;5.32;;;4.03;;
68315;SDS011;55508;54.368;18.406;2023-02-24T05:59:18;4.45;;;4.05;;
68315;SDS011;55508;54.368;18.406;2023-02-24T06:01:47;4.00;;;3.70;;
68315;SDS011;55508;54.368;18.406;2023-02-24T06:04:18;5.40;;;4.55;;
68315;SDS011;55508;54.368;18.406;2023-02-24T06:07:06;7.38;;;5.25;;
68315;SDS011;55508;54.368;18.406;2023-02-24T06:09:39;6.53;;;5.20;;
68315;SDS011;55508;54.368;18.406;2023-02-24T06:12:08;5.45;;;5.03;;
68315;SDS011;55508;54.368;18.406;2023-02-24T06:14:36;5.28;;;4.28;;
68315;SDS011;55508;54.368;18.406;2023-02-24T06:17:03;6.93;;;5.05;;
68315;SDS011;55508;54.368;18.406;2023-02-24T06:19:30;5.18;;;4.70;;
68315;SDS011;55508;54.368;18.406;2023-02-24T06:22:00;4.00;;;3.35;;
68315;SDS011;55508;54.368;18.406;2023-02-24T06:24:28;7.28;;;4.13;;
68315;SDS011;55508;54.368;18.406;2023-02-24T06:26:56;4.20;;;2.30;;
68315;SDS011;55508;54.368;18.406;2023-02-24T06:29:36;3.00;;;1.67;;
68315;SDS011;55508;54.368;18.406;2023-02-24T06:32:03;2.65;;;1.10;;
68315;SDS011;55508;54.368;18.406;2023-02-24T06:34:37;2.10;;;1.40;;
68315;SDS011;55508;54.368;18.406;2023-02-24T06:37:05;2.45;;;1.50;;
68315;SDS011;55508;54.368;18.406;2023-02-24T06:39:32;3.42;;;2.50;;
68315;SDS011;55508;54.368;18.406;2023-02-24T06:42:02;9.85;;;5.70;;
68315;SDS011;55508;54.368;18.406;2023-02-24T06:44:31;7.35;;;3.92;;
68315;SDS011;55508;54.368;18.406;2023-02-24T06:46:58;6.68;;;3.03;;
68315;SDS011;55508;54.368;18.406;2023-02-24T06:49:25;5.85;;;4.07;;
68315;SDS011;55508;54.368;18.406;2023-02-24T06:51:53;10.35;;;5.22;;
68315;SDS011;55508;54.368;18.406;2023-02-24T06:54:21;9.15;;;5.43;;
68315;SDS011;55508;54.368;18.406;2023-02-24T06:56:51;20.30;;;8.20;;
68315;SDS011;55508;54.368;18.406;2023-02-24T06:59:17;10.23;;;6.72;;
68315;SDS011;55508;54.368;18.406;2023-02-24T07:01:47;14.38;;;9.98;;
68315;SDS011;55508;54.368;18.406;2023-02-24T07:04:15;88.25;;;42.50;;
68315;SDS011;55508;54.368;18.406;2023-02-24T07:06:44;37.00;;;17.75;;
68315;SDS011;55508;54.368;18.406;2023-02-24T07:09:19;22.85;;;7.88;;
68315;SDS011;55508;54.368;18.406;2023-02-24T07:11:48;30.77;;;9.35;;
68315;SDS011;55508;54.368;18.406;2023-02-24T07:14:19;21.65;;;7.32;;
68315;SDS011;55508;54.368;18.406;2023-02-24T07:16:48;55.40;;;16.88;;
68315;SDS011;55508;54.368;18.406;2023-02-24T07:19:22;34.30;;;9.25;;
68315;SDS011;55508;54.368;18.406;2023-02-24T07:21:54;24.30;;;7.40;;
68315;SDS011;55508;54.368;18.406;2023-02-24T07:24:26;16.90;;;5.88;;
68315;SDS011;55508;54.368;18.406;2023-02-24T07:27:00;21.63;;;7.70;;
68315;SDS011;55508;54.368;18.406;2023-02-24T07:29:29;11.82;;;3.47;;
68315;SDS011;55508;54.368;18.406;2023-02-24T07:31:58;22.08;;;6.80;;
68315;SDS011;55508;54.368;18.406;2023-02-24T07:34:30;19.80;;;4.53;;
68315;SDS011;55508;54.368;18.406;2023-02-24T07:37:00;23.15;;;8.07;;
68315;SDS011;55508;54.368;18.406;2023-02-24T07:39:34;16.50;;;5.13;;
68315;SDS011;55508;54.368;18.406;2023-02-24T07:44:41;7.18;;;3.42;;
68315;SDS011;55508;54.368;18.406;2023-02-24T07:47:10;10.18;;;5.25;;
68315;SDS011;55508;54.368;18.406;2023-02-24T07:49:38;12.18;;;3.65;;
68315;SDS011;55508;54.368;18.406;2023-02-24T07:52:06;14.82;;;4.10;;
68315;SDS011;55508;54.368;18.406;2023-02-24T07:54:33;9.98;;;3.45;;
68315;SDS011;55508;54.368;18.406;2023-02-24T07:57:01;6.97;;;3.40;;
68315;SDS011;55508;54.368;18.406;2023-02-24T07:59:29;7.15;;;3.85;;
68315;SDS011;55508;54.368;18.406;2023-02-24T08:02:00;7.45;;;3.85;;
68315;SDS011;55508;54.368;18.406;2023-02-24T08:04:30;12.57;;;4.18;;
68315;SDS011;55508;54.368;18.406;2023-02-24T08:06:59;16.17;;;4.40;;
68315;SDS011;55508;54.368;18.406;2023-02-24T08:09:30;15.05;;;4.40;;
68315;SDS011;55508;54.368;18.406;2023-02-24T08:12:19;8.30;;;3.65;;
68315;SDS011;55508;54.368;18.406;2023-02-24T08:14:49;8.75;;;3.75;;
68315;SDS011;55508;54.368;18.406;2023-02-24T08:17:22;5.97;;;3.25;;
68315;SDS011;55508;54.368;18.406;2023-02-24T08:19:52;9.90;;;3.55;;
68315;SDS011;55508;54.368;18.406;2023-02-24T08:22:41;9.35;;;3.95;;
68315;SDS011;55508;54.368;18.406;2023-02-24T08:25:10;9.88;;;3.47;;
68315;SDS011;55508;54.368;18.406;2023-02-24T08:27:48;8.88;;;3.85;;
68315;SDS011;55508;54.368;18.406;2023-02-24T08:30:35;11.55;;;4.22;;
68315;SDS011;55508;54.368;18.406;2023-02-24T08:33:18;14.63;;;4.85;;
68315;SDS011;55508;54.368;18.406;2023-02-24T08:35:51;11.25;;;3.55;;
68315;SDS011;55508;54.368;18.406;2023-02-24T08:38:32;6.53;;;3.28;;
68315;SDS011;55508;54.368;18.406;2023-02-24T08:41:11;8.90;;;2.80;;
68315;SDS011;55508;54.368;18.406;2023-02-24T08:43:45;9.23;;;3.17;;
68315;SDS011;55508;54.368;18.406;2023-02-24T08:46:15;13.15;;;4.30;;
68315;SDS011;55508;54.368;18.406;2023-02-24T08:48:48;10.95;;;4.72;;
68315;SDS011;55508;54.368;18.406;2023-02-24T08:51:23;9.05;;;3.13;;
68315;SDS011;55508;54.368;18.406;2023-02-24T08:53:56;18.33;;;4.85;;
68315;SDS011;55508;54.368;18.406;2023-02-24T08:56:27;9.82;;;3.97;;
68315;SDS011;55508;54.368;18.406;2023-02-24T08:58:57;5.77;;;3.03;;
68315;SDS011;55508;54.368;18.406;2023-02-24T09:01:33;10.88;;;3.38;;
68315;SDS011;55508;54.368;18.406;2023-02-24T09:04:07;7.53;;;3.70;;
68315;SDS011;55508;54.368;18.406;2023-02-24T09:06:44;15.48;;;4.10;;
68315;SDS011;55508;54.368;18.406;2023-02-24T09:09:14;12.20;;;4.75;;
68315;SDS011;55508;54.368;18.406;2023-02-24T09:11:50;9.90;;;4.63;;
68315;SDS011;55508;54.368;18.406;2023-02-24T09:14:24;15.52;;;4.65;;
68315;SDS011;55508;54.368;18.406;2023-02-24T09:16:55;11.88;;;4.57;;
68315;SDS011;55508;54.368;18.406;2023-02-24T09:19:33;16.90;;;4.57;;
68315;SDS011;55508;54.368;18.406;2023-02-24T09:22:06;13.05;;;4.57;;
68315;SDS011;55508;54.368;18.406;2023-02-24T09:24:46;13.65;;;4.50;;
68315;SDS011;55508;54.368;18.406;2023-02-24T09:27:16;11.90;;;4.38;;
68315;SDS011;55508;54.368;18.406;2023-02-24T09:29:43;11.55;;;4.28;;
68315;SDS011;55508;54.368;18.406;2023-02-24T09:32:14;9.52;;;3.40;;
68315;SDS011;55508;54.368;18.406;2023-02-24T09:34:42;10.75;;;3.47;;
68315;SDS011;55508;54.368;18.406;2023-02-24T09:37:13;11.38;;;3.70;;
68315;SDS011;55508;54.368;18.406;2023-02-24T09:39:51;10.35;;;3.80;;
68315;SDS011;55508;54.368;18.406;2023-02-24T09:42:38;15.05;;;5.18;;
68315;SDS011;55508;54.368;18.406;2023-02-24T09:45:23;10.13;;;3.38;;
68315;SDS011;55508;54.368;18.406;2023-02-24T09:48:04;7.35;;;2.88;;
68315;SDS011;55508;54.368;18.406;2023-02-24T09:50:42;14.00;;;4.95;;
68315;SDS011;55508;54.368;18.406;2023-02-24T09:53:29;15.80;;;4.50;;
68315;SDS011;55508;54.368;18.406;2023-02-24T09:56:09;15.38;;;3.78;;
68315;SDS011;55508;54.368;18.406;2023-02-24T09:58:45;13.63;;;3.83;;
68315;SDS011;55508;54.368;18.406;2023-02-24T10:01:27;10.55;;;3.10;;
68315;SDS011;55508;54.368;18.406;2023-02-24T10:04:25;14.50;;;4.68;;
68315;SDS011;55508;54.368;18.406;2023-02-24T10:07:04;10.68;;;3.22;;
68315;SDS011;55508;54.368;18.406;2023-02-24T10:12:50;13.70;;;3.40;;
68315;SDS011;55508;54.368;18.406;2023-02-24T10:15:22;8.07;;;3.17;;
68315;SDS011;55508;54.368;18.406;2023-02-24T10:18:19;8.65;;;3.03;;
68315;SDS011;55508;54.368;18.406;2023-02-24T10:21:12;9.98;;;2.80;;
68315;SDS011;55508;54.368;18.406;2023-02-24T10:23:51;6.07;;;2.38;;
68315;SDS011;55508;54.368;18.406;2023-02-24T10:26:32;7.85;;;2.72;;
68315;SDS011;55508;54.368;18.406;2023-02-24T10:29:30;10.55;;;3.90;;
68315;SDS011;55508;54.368;18.406;2023-02-24T10:32:16;16.80;;;4.05;;
68315;SDS011;55508;54.368;18.406;2023-02-24T10:34:51;12.02;;;3.63;;
68315;SDS011;55508;54.368;18.406;2023-02-24T10:37:19;5.50;;;2.20;;
68315;SDS011;55508;54.368;18.406;2023-02-24T10:39:55;9.05;;;3.25;;
68315;SDS011;55508;54.368;18.406;2023-02-24T10:42:36;23.85;;;4.15;;
68315;SDS011;55508;54.368;18.406;2023-02-24T10:45:16;8.75;;;3.10;;
68315;SDS011;55508;54.368;18.406;2023-02-24T10:47:50;8.90;;;2.30;;
68315;SDS011;55508;54.368;18.406;2023-02-24T10:50:32;11.43;;;2.58;;
68315;SDS011;55508;54.368;18.406;2023-02-24T10:53:23;9.38;;;2.30;;
68315;SDS011;55508;54.368;18.406;2023-02-24T10:56:04;7.78;;;2.58;;
68315;SDS011;55508;54.368;18.406;2023-02-24T10:59:00;8.07;;;2.95;;
68315;SDS011;55508;54.368;18.406;2023-02-24T11:02:07;13.13;;;2.65;;
68315;SDS011;55508;54.368;18.406;2023-02-24T11:04:59;10.88;;;3.40;;
68315;SDS011;55508;54.368;18.406;2023-02-24T11:11:06;11.38;;;4.00;;
68315;SDS011;55508;54.368;18.406;2023-02-24T11:13:48;20.70;;;6.00;;
68315;SDS011;55508;54.368;18.406;2023-02-24T11:16:43;12.48;;;4.40;;
68315;SDS011;55508;54.368;18.406;2023-02-24T11:19:47;9.77;;;3.22;;
68315;SDS011;55508;54.368;18.406;2023-02-24T11:22:21;11.57;;;3.67;;
68315;SDS011;55508;54.368;18.406;2023-02-24T11:24:50;15.50;;;5.10;;
68315;SDS011;55508;54.368;18.406;2023-02-24T11:27:17;8.80;;;3.13;;
68315;SDS011;55508;54.368;18.406;2023-02-24T11:33:01;14.60;;;3.33;;
68315;SDS011;55508;54.368;18.406;2023-02-24T11:35:47;12.15;;;3.30;;
68315;SDS011;55508;54.368;18.406;2023-02-24T11:38:41;9.75;;;3.17;;
68315;SDS011;55508;54.368;18.406;2023-02-24T11:41:22;7.50;;;2.75;;
68315;SDS011;55508;54.368;18.406;2023-02-24T11:43:55;5.82;;;2.78;;
68315;SDS011;55508;54.368;18.406;2023-02-24T11:46:30;11.35;;;4.95;;
68315;SDS011;55508;54.368;18.406;2023-02-24T11:49:15;17.98;;;4.68;;
68315;SDS011;55508;54.368;18.406;2023-02-24T11:51:51;25.23;;;7.57;;
68315;SDS011;55508;54.368;18.406;2023-02-24T11:54:18;26.83;;;8.02;;
68315;SDS011;55508;54.368;18.406;2023-02-24T11:56:51;43.35;;;12.48;;
68315;SDS011;55508;54.368;18.406;2023-02-24T12:05:14;23.00;;;7.38;;
68315;SDS011;55508;54.368;18.406;2023-02-24T12:07:49;16.80;;;6.10;;
68315;SDS011;55508;54.368;18.406;2023-02-24T12:10:22;12.13;;;4.40;;
68315;SDS011;55508;54.368;18.406;2023-02-24T12:16:03;13.57;;;4.88;;
68315;SDS011;55508;54.368;18.406;2023-02-24T12:18:50;20.17;;;6.32;;
68315;SDS011;55508;54.368;18.406;2023-02-24T12:21:39;17.13;;;6.25;;
68315;SDS011;55508;54.368;18.406;2023-02-24T12:24:12;16.10;;;5.20;;
68315;SDS011;55508;54.368;18.406;2023-02-24T12:29:49;9.75;;;2.97;;
68315;SDS011;55508;54.368;18.406;2023-02-24T12:32:39;8.77;;;3.05;;
68315;SDS011;55508;54.368;18.406;2023-02-24T12:35:20;7.80;;;2.95;;
68315;SDS011;55508;54.368;18.406;2023-02-24T12:38:06;10.93;;;3.40;;
68315;SDS011;55508;54.368;18.406;2023-02-24T12:43:52;9.20;;;3.35;;
68315;SDS011;55508;54.368;18.406;2023-02-24T12:46:25;11.73;;;3.53;;
68315;SDS011;55508;54.368;18.406;2023-02-24T12:49:10;8.70;;;3.50;;
68315;SDS011;55508;54.368;18.406;2023-02-24T12:57:50;7.25;;;2.83;;
68315;SDS011;55508;54.368;18.406;2023-02-24T13:00:48;10.60;;;3.50;;
68315;SDS011;55508;54.368;18.406;2023-02-24T13:06:40;11.77;;;3.30;;
68315;SDS011;55508;54.368;18.406;2023-02-24T13:09:32;16.15;;;4.88;;
68315;SDS011;55508;54.368;18.406;2023-02-24T13:15:04;12.25;;;2.63;;
68315;SDS011;55508;54.368;18.406;2023-02-24T13:17:32;10.25;;;3.55;;
68315;SDS011;55508;54.368;18.406;2023-02-24T13:20:07;13.25;;;4.65;;
68315;SDS011;55508;54.368;18.406;2023-02-24T13:22:39;13.18;;;4.22;;
68315;SDS011;55508;54.368;18.406;2023-02-24T13:25:10;7.07;;;2.97;;
68315;SDS011;55508;54.368;18.406;2023-02-24T13:27:52;14.13;;;4.15;;
68315;SDS011;55508;54.368;18.406;2023-02-24T13:30:25;14.32;;;3.45;;
68315;SDS011;55508;54.368;18.406;2023-02-24T13:33:01;19.55;;;6.30;;
68315;SDS011;55508;54.368;18.406;2023-02-24T13:35:39;13.20;;;3.95;;
68315;SDS011;55508;54.368;18.406;2023-02-24T13:38:07;7.07;;;2.83;;
68315;SDS011;55508;54.368;18.406;2023-02-24T13:40:36;7.03;;;3.25;;
68315;SDS011;55508;54.368;18.406;2023-02-24T13:43:03;12.93;;;3.28;;
68315;SDS011;55508;54.368;18.406;2023-02-24T13:45:31;11.35;;;3.28;;
68315;SDS011;55508;54.368;18.406;2023-02-24T13:51:09;9.73;;;3.20;;
68315;SDS011;55508;54.368;18.406;2023-02-24T14:02:17;22.02;;;5.55;;
68315;SDS011;55508;54.368;18.406;2023-02-24T14:04:48;11.77;;;4.03;;
68315;SDS011;55508;54.368;18.406;2023-02-24T14:07:21;13.40;;;4.90;;
68315;SDS011;55508;54.368;18.406;2023-02-24T14:09:52;11.25;;;3.72;;
68315;SDS011;55508;54.368;18.406;2023-02-24T14:12:23;14.18;;;2.95;;
68315;SDS011;55508;54.368;18.406;2023-02-24T14:14:52;11.45;;;3.75;;
68315;SDS011;55508;54.368;18.406;2023-02-24T14:17:24;10.10;;;3.58;;
68315;SDS011;55508;54.368;18.406;2023-02-24T14:22:48;7.90;;;2.13;;
68315;SDS011;55508;54.368;18.406;2023-02-24T14:25:18;7.88;;;1.98;;
68315;SDS011;55508;54.368;18.406;2023-02-24T14:27:47;7.25;;;3.08;;
68315;SDS011;55508;54.368;18.406;2023-02-24T14:30:23;9.35;;;2.78;;
68315;SDS011;55508;54.368;18.406;2023-02-24T14:32:56;4.85;;;2.50;;
68315;SDS011;55508;54.368;18.406;2023-02-24T14:35:33;6.38;;;1.63;;
68315;SDS011;55508;54.368;18.406;2023-02-24T14:38:01;8.40;;;2.15;;
68315;SDS011;55508;54.368;18.406;2023-02-24T14:40:29;9.25;;;2.38;;
68315;SDS011;55508;54.368;18.406;2023-02-24T14:42:56;6.03;;;1.95;;
68315;SDS011;55508;54.368;18.406;2023-02-24T14:45:24;8.35;;;1.85;;
68315;SDS011;55508;54.368;18.406;2023-02-24T14:47:53;7.53;;;1.88;;
68315;SDS011;55508;54.368;18.406;2023-02-24T14:50:26;10.32;;;2.60;;
68315;SDS011;55508;54.368;18.406;2023-02-24T14:52:57;6.70;;;2.40;;
68315;SDS011;55508;54.368;18.406;2023-02-24T14:55:32;10.95;;;2.53;;
68315;SDS011;55508;54.368;18.406;2023-02-24T14:58:05;7.07;;;2.17;;
68315;SDS011;55508;54.368;18.406;2023-02-24T15:00:50;12.45;;;2.67;;
68315;SDS011;55508;54.368;18.406;2023-02-24T15:03:32;6.80;;;2.30;;
68315;SDS011;55508;54.368;18.406;2023-02-24T15:06:07;7.18;;;2.40;;
68315;SDS011;55508;54.368;18.406;2023-02-24T15:08:41;10.65;;;2.55;;
68315;SDS011;55508;54.368;18.406;2023-02-24T15:11:20;7.25;;;2.80;;
68315;SDS011;55508;54.368;18.406;2023-02-24T15:13:49;8.93;;;3.05;;
68315;SDS011;55508;54.368;18.406;2023-02-24T15:16:22;8.00;;;3.05;;
68315;SDS011;55508;54.368;18.406;2023-02-24T15:18:53;11.65;;;2.88;;
68315;SDS011;55508;54.368;18.406;2023-02-24T15:24:18;9.02;;;2.65;;
68315;SDS011;55508;54.368;18.406;2023-02-24T15:26:52;10.35;;;2.97;;
68315;SDS011;55508;54.368;18.406;2023-02-24T15:29:23;7.25;;;2.55;;
68315;SDS011;55508;54.368;18.406;2023-02-24T15:31:53;13.00;;;3.42;;
68315;SDS011;55508;54.368;18.406;2023-02-24T15:34:22;7.80;;;2.72;;
68315;SDS011;55508;54.368;18.406;2023-02-24T15:36:56;10.00;;;3.13;;
68315;SDS011;55508;54.368;18.406;2023-02-24T15:39:27;8.10;;;2.80;;
68315;SDS011;55508;54.368;18.406;2023-02-24T15:42:18;12.18;;;2.97;;
68315;SDS011;55508;54.368;18.406;2023-02-24T15:44:54;9.27;;;3.20;;
68315;SDS011;55508;54.368;18.406;2023-02-24T15:47:24;10.50;;;3.17;;
68315;SDS011;55508;54.368;18.406;2023-02-24T15:49:52;9.82;;;3.30;;
68315;SDS011;55508;54.368;18.406;2023-02-24T15:52:24;6.63;;;3.00;;
68315;SDS011;55508;54.368;18.406;2023-02-24T15:54:53;14.13;;;3.42;;
68315;SDS011;55508;54.368;18.406;2023-02-24T15:57:23;12.20;;;3.30;;
68315;SDS011;55508;54.368;18.406;2023-02-24T15:59:50;7.22;;;3.25;;
68315;SDS011;55508;54.368;18.406;2023-02-24T16:02:18;14.85;;;4.15;;
68315;SDS011;55508;54.368;18.406;2023-02-24T16:04:47;7.25;;;3.30;;
68315;SDS011;55508;54.368;18.406;2023-02-24T16:07:16;7.30;;;3.10;;
68315;SDS011;55508;54.368;18.406;2023-02-24T16:09:51;8.05;;;2.83;;
68315;SDS011;55508;54.368;18.406;2023-02-24T16:12:21;9.00;;;3.33;;
68315;SDS011;55508;54.368;18.406;2023-02-24T16:14:50;8.88;;;3.05;;
68315;SDS011;55508;54.368;18.406;2023-02-24T16:17:34;9.15;;;3.05;;
68315;SDS011;55508;54.368;18.406;2023-02-24T16:20:11;9.50;;;3.40;;
68315;SDS011;55508;54.368;18.406;2023-02-24T16:22:39;7.95;;;3.08;;